createdAt,value
2018-01-11T00:00:54.026Z,83.51
2018-01-11T00:03:21.415Z,83.03
2018-01-11T00:05:48.838Z,83.02
2018-01-11T00:08:16.290Z,82.42
2018-01-11T00:10:43.686Z,81.52
2018-01-11T00:13:11.083Z,80.99
2018-01-11T00:15:38.482Z,80.62
2018-01-11T00:18:05.885Z,80.52
2018-01-11T00:20:33.283Z,80.70
2018-01-11T00:23:00.685Z,80.46
2018-01-11T00:25:28.089Z,79.87
2018-01-11T00:27:55.472Z,79.52
2018-01-11T00:30:22.891Z,80.07
2018-01-11T00:32:50.304Z,80.39
2018-01-11T00:35:17.710Z,81.53
2018-01-11T00:37:45.107Z,81.70
2018-01-11T00:40:12.507Z,80.41
2018-01-11T00:42:39.908Z,80.22
2018-01-11T00:45:07.303Z,80.38
2018-01-11T00:47:34.707Z,81.45
2018-01-11T00:50:02.098Z,81.17
2018-01-11T00:52:29.498Z,81.15
2018-01-11T00:54:56.993Z,81.98
2018-01-11T00:57:24.394Z,83.41
2018-01-11T00:59:51.791Z,85.14
2018-01-11T01:02:19.199Z,87.06
2018-01-11T01:04:46.589Z,87.96
2018-01-11T01:07:13.989Z,88.54
2018-01-11T01:09:41.378Z,88.91
2018-01-11T01:12:08.787Z,88.30
2018-01-11T01:14:36.179Z,87.84
2018-01-11T01:17:03.593Z,87.55
2018-01-11T01:19:30.982Z,86.90
2018-01-11T01:21:58.378Z,86.90
2018-01-11T01:24:25.766Z,86.86
2018-01-11T01:26:53.194Z,87.20
2018-01-11T01:29:20.586Z,86.95
2018-01-11T01:31:48.058Z,86.22
2018-01-11T01:34:15.479Z,85.26
2018-01-11T01:36:42.886Z,84.66
2018-01-11T01:39:10.278Z,84.30
2018-01-11T01:41:37.693Z,82.99
2018-01-11T01:44:05.082Z,83.13
2018-01-11T01:46:32.487Z,83.35
2018-01-11T01:48:59.879Z,83.04
2018-01-11T01:51:27.276Z,82.62
2018-01-11T01:53:54.671Z,81.89
2018-01-11T01:56:22.088Z,81.92
2018-01-11T01:58:49.502Z,82.02
2018-01-11T02:01:16.912Z,81.80
2018-01-11T02:03:44.307Z,82.67
2018-01-11T02:06:11.706Z,84.02
2018-01-11T02:08:39.106Z,84.93
2018-01-11T02:11:06.507Z,85.47
2018-01-11T02:13:33.934Z,85.79
2018-01-11T02:16:01.366Z,85.86
2018-01-11T02:18:28.746Z,86.82
2018-01-11T02:20:56.142Z,87.46
2018-01-11T02:23:23.610Z,87.50
2018-01-11T02:25:51.049Z,86.87
2018-01-11T02:28:18.833Z,86.20
2018-01-11T02:30:46.237Z,86.28
2018-01-11T02:33:13.655Z,85.61
2018-01-11T02:35:41.055Z,84.60
2018-01-11T02:38:08.471Z,83.49
2018-01-11T02:40:35.863Z,81.97
2018-01-11T02:43:03.273Z,81.44
2018-01-11T02:45:30.657Z,80.88
2018-01-11T02:47:58.122Z,80.67
2018-01-11T02:50:25.524Z,80.80
2018-01-11T02:52:52.917Z,81.21
2018-01-11T02:55:20.320Z,80.85
2018-01-11T02:57:47.713Z,81.17
2018-01-11T03:00:15.109Z,81.54
2018-01-11T03:02:42.506Z,81.63
2018-01-11T03:05:09.901Z,81.54
2018-01-11T03:07:37.298Z,81.34
2018-01-11T03:10:04.695Z,82.86
2018-01-11T03:12:32.097Z,83.02
2018-01-11T03:14:59.489Z,82.71
2018-01-11T03:17:26.931Z,82.37
2018-01-11T03:19:54.318Z,82.08
2018-01-11T03:22:21.723Z,81.71
2018-01-11T03:24:49.125Z,81.42
2018-01-11T03:27:16.518Z,80.85
2018-01-11T03:29:43.916Z,80.56
2018-01-11T03:32:11.984Z,79.94
2018-01-11T03:34:39.374Z,79.70
2018-01-11T03:37:06.777Z,79.93
2018-01-11T03:39:34.173Z,81.30
2018-01-11T03:42:01.578Z,84.15
2018-01-11T03:44:28.975Z,86.48
2018-01-11T03:46:56.369Z,87.66
2018-01-11T03:49:23.774Z,88.21
2018-01-11T03:51:51.162Z,88.98
2018-01-11T03:54:18.554Z,88.83
2018-01-11T03:56:45.978Z,88.35
2018-01-11T03:59:13.393Z,87.74
2018-01-11T04:01:40.790Z,87.27
2018-01-11T04:04:08.246Z,86.78
2018-01-11T04:06:35.654Z,85.80
2018-01-11T04:09:03.055Z,86.12
2018-01-11T04:11:30.470Z,86.54
2018-01-11T04:13:57.874Z,85.90
2018-01-11T04:16:25.324Z,85.52
2018-01-11T04:18:52.690Z,85.45
2018-01-11T04:21:20.115Z,84.70
2018-01-11T04:23:47.506Z,83.97
2018-01-11T04:26:14.932Z,83.34
2018-01-11T04:28:42.322Z,83.16
2018-01-11T04:31:09.724Z,82.77
2018-01-11T04:33:37.180Z,81.59
2018-01-11T04:36:05.542Z,81.94
2018-01-11T04:38:32.958Z,81.57
2018-01-11T04:41:01.059Z,80.98
2018-01-11T04:43:28.463Z,80.49
2018-01-11T04:45:55.878Z,80.74
2018-01-11T04:48:23.292Z,80.22
2018-01-11T04:50:50.688Z,80.00
2018-01-11T04:53:18.095Z,80.38
2018-01-11T04:55:45.540Z,80.68
2018-01-11T04:58:12.922Z,79.92
2018-01-11T05:00:46.050Z,79.95
2018-01-11T05:03:13.543Z,79.52
2018-01-11T05:05:40.936Z,79.43
2018-01-11T05:08:08.330Z,79.94
2018-01-11T05:10:35.742Z,80.75
2018-01-11T05:13:03.151Z,80.44
2018-01-11T05:15:30.542Z,79.16
2018-01-11T05:17:57.947Z,79.63
2018-01-11T05:20:25.351Z,79.13
2018-01-11T05:22:52.762Z,78.77
2018-01-11T05:25:20.167Z,77.95
2018-01-11T05:27:47.558Z,78.09
2018-01-11T05:30:15.669Z,77.92
2018-01-11T05:32:43.051Z,78.67
2018-01-11T05:35:10.450Z,78.46
2018-01-11T05:37:37.855Z,78.37
2018-01-11T05:40:05.264Z,78.14
2018-01-11T05:42:32.666Z,78.69
2018-01-11T05:45:00.073Z,78.79
2018-01-11T05:47:27.467Z,79.84
2018-01-11T05:49:54.856Z,81.09
2018-01-11T05:52:22.299Z,81.58
2018-01-11T05:54:49.695Z,82.43
2018-01-11T05:57:17.095Z,82.58
2018-01-11T05:59:44.490Z,84.74
2018-01-11T06:02:11.918Z,85.25
2018-01-11T06:04:39.338Z,84.12
2018-01-11T06:07:06.751Z,82.90
2018-01-11T06:09:34.144Z,82.11
2018-01-11T06:12:01.548Z,81.01
2018-01-11T06:14:28.950Z,80.71
2018-01-11T06:16:56.359Z,80.98
2018-01-11T06:19:23.762Z,80.46
2018-01-11T06:21:51.158Z,79.52
2018-01-11T06:24:18.558Z,79.33
2018-01-11T06:26:45.946Z,79.39
2018-01-11T06:29:13.368Z,79.35
2018-01-11T06:31:40.751Z,79.11
2018-01-11T06:34:08.156Z,79.51
2018-01-11T06:36:35.637Z,78.72
2018-01-11T06:39:03.044Z,78.64
2018-01-11T06:41:30.430Z,79.71
2018-01-11T06:43:57.834Z,80.78
2018-01-11T06:46:25.223Z,81.27
2018-01-11T06:48:52.635Z,80.75
2018-01-11T06:51:20.034Z,79.98
2018-01-11T06:53:47.422Z,79.53
2018-01-11T06:56:14.815Z,79.74
2018-01-11T06:58:42.262Z,81.43
2018-01-11T07:01:09.658Z,80.96
2018-01-11T07:03:37.058Z,81.29
2018-01-11T07:06:04.442Z,80.98
2018-01-11T07:08:32.206Z,81.46
2018-01-11T07:10:59.603Z,82.67
2018-01-11T07:13:27.003Z,84.36
2018-01-11T07:15:54.396Z,84.70
2018-01-11T07:18:21.794Z,84.57
2018-01-11T07:20:49.209Z,85.13
2018-01-11T07:23:16.610Z,84.94
2018-01-11T07:25:44.011Z,85.02
2018-01-11T07:28:11.409Z,84.26
2018-01-11T07:30:38.804Z,83.86
2018-01-11T07:33:06.390Z,83.40
2018-01-11T07:35:33.791Z,83.41
2018-01-11T07:38:01.191Z,82.55
2018-01-11T07:40:28.590Z,81.74
2018-01-11T07:42:55.993Z,82.15
2018-01-11T07:45:23.383Z,81.78
2018-01-11T07:47:50.784Z,81.04
2018-01-11T07:50:18.173Z,80.82
2018-01-11T07:52:45.585Z,80.23
2018-01-11T07:55:12.988Z,80.32
2018-01-11T07:57:40.382Z,80.97
2018-01-11T08:00:07.780Z,80.97
2018-01-11T08:02:35.177Z,80.73
2018-01-11T08:05:02.567Z,81.39
2018-01-11T08:07:29.971Z,81.14
2018-01-11T08:09:57.358Z,81.18
2018-01-11T08:12:25.407Z,81.59
2018-01-11T08:14:52.802Z,81.97
2018-01-11T08:17:20.190Z,81.99
2018-01-11T08:19:47.599Z,82.27
2018-01-11T08:22:15.159Z,81.88
2018-01-11T08:24:42.593Z,81.66
2018-01-11T08:27:09.934Z,81.51
2018-01-11T08:29:37.391Z,81.33
2018-01-11T08:32:04.787Z,80.66
2018-01-11T08:34:32.203Z,81.90
2018-01-11T08:36:59.594Z,81.85
2018-01-11T08:39:27.026Z,81.90
2018-01-11T08:41:54.416Z,81.17
2018-01-11T08:44:21.840Z,80.40
2018-01-11T08:46:49.280Z,80.81
2018-01-11T08:49:16.779Z,80.54
2018-01-11T08:51:44.175Z,79.94
2018-01-11T08:54:11.586Z,75.52
2018-01-11T08:56:38.978Z,75.78
2018-01-11T08:59:06.405Z,76.25
2018-01-11T09:01:33.815Z,76.80
2018-01-11T09:04:01.206Z,77.38
2018-01-11T09:06:28.598Z,76.62
2018-01-11T09:08:56.026Z,77.22
2018-01-11T09:11:23.399Z,77.66
2018-01-11T09:13:50.798Z,79.25
2018-01-11T09:16:18.203Z,79.89
2018-01-11T09:18:45.594Z,80.66
2018-01-11T09:21:12.992Z,80.25
2018-01-11T09:23:40.387Z,79.77
2018-01-11T09:26:07.784Z,79.06
2018-01-11T09:28:35.179Z,80.65
2018-01-11T09:31:02.579Z,80.26
2018-01-11T09:33:29.984Z,79.66
2018-01-11T09:35:57.367Z,81.09
2018-01-11T09:38:24.771Z,78.69
2018-01-11T09:40:52.167Z,80.08
2018-01-11T09:43:19.559Z,78.78
2018-01-11T09:45:46.951Z,78.23
2018-01-11T09:48:14.347Z,78.39
2018-01-11T09:50:41.739Z,76.88
2018-01-11T09:53:09.145Z,76.11
2018-01-11T09:55:36.531Z,76.82
2018-01-11T09:58:03.934Z,77.06
2018-01-11T10:00:31.326Z,78.03
2018-01-11T10:02:58.722Z,75.83
2018-01-11T10:05:26.136Z,73.60
2018-01-11T10:07:53.526Z,70.44
2018-01-11T10:10:20.922Z,72.45
2018-01-11T10:12:48.315Z,68.18
2018-01-11T10:15:15.719Z,64.77
2018-01-11T10:17:43.162Z,60.11
2018-01-11T10:20:10.551Z,60.03
2018-01-11T10:22:37.950Z,61.43
2018-01-11T10:25:05.351Z,59.90
2018-01-11T10:27:32.750Z,55.88
2018-01-11T10:30:00.161Z,54.86
2018-01-11T10:32:27.579Z,56.22
2018-01-11T10:34:54.984Z,57.41
2018-01-11T10:37:22.375Z,59.45
2018-01-11T10:39:49.775Z,60.78
2018-01-11T10:42:17.189Z,59.86
2018-01-11T10:44:44.598Z,59.38
2018-01-11T10:47:11.987Z,60.73
2018-01-11T10:49:39.386Z,60.19
2018-01-11T10:52:06.784Z,60.93
2018-01-11T10:54:34.182Z,59.41
2018-01-11T10:57:01.578Z,60.96
2018-01-11T10:59:28.983Z,60.87
2018-01-11T11:02:02.117Z,60.81
2018-01-11T11:04:29.518Z,60.42
2018-01-11T11:06:56.948Z,61.75
2018-01-11T11:09:24.355Z,61.23
2018-01-11T11:11:51.758Z,61.59
2018-01-11T11:14:19.217Z,62.24
2018-01-11T11:16:46.614Z,61.71
2018-01-11T11:19:14.021Z,61.34
2018-01-11T11:21:41.410Z,61.48
2018-01-11T11:24:08.831Z,61.89
2018-01-11T11:26:36.226Z,62.03
2018-01-11T11:29:03.648Z,61.68
2018-01-11T11:31:31.094Z,62.13
2018-01-11T11:33:58.547Z,62.72
2018-01-11T11:36:25.952Z,63.66
2018-01-11T11:38:53.345Z,65.57
2018-01-11T11:41:20.735Z,67.09
2018-01-11T11:43:48.134Z,67.64
2018-01-11T11:46:15.548Z,67.53
2018-01-11T11:48:42.964Z,68.09
2018-01-11T11:51:10.355Z,69.43
2018-01-11T11:53:37.751Z,70.36
2018-01-11T11:56:05.150Z,70.80
2018-01-11T11:58:32.542Z,70.52
2018-01-11T12:00:59.947Z,70.63
2018-01-11T12:03:27.347Z,70.47
2018-01-11T12:05:54.775Z,70.35
2018-01-11T12:08:22.175Z,70.12
2018-01-11T12:10:49.571Z,69.89
2018-01-11T12:13:16.954Z,69.49
2018-01-11T12:15:44.363Z,69.42
2018-01-11T12:18:11.755Z,69.57
2018-01-11T12:20:39.150Z,69.52
2018-01-11T12:23:06.538Z,69.56
2018-01-11T12:25:33.940Z,70.23
2018-01-11T12:28:01.329Z,71.17
2018-01-11T12:30:28.739Z,71.49
2018-01-11T12:32:56.185Z,72.68
2018-01-11T12:35:23.587Z,73.10
2018-01-11T12:37:50.978Z,72.95
2018-01-11T12:40:18.379Z,72.33
2018-01-11T12:42:45.799Z,72.58
2018-01-11T12:45:13.199Z,73.25
2018-01-11T12:47:40.590Z,73.32
2018-01-11T12:50:08.005Z,73.74
2018-01-11T12:52:35.398Z,74.78
2018-01-11T12:55:02.802Z,75.39
2018-01-11T12:57:30.296Z,74.99
2018-01-11T12:59:57.687Z,74.47
2018-01-11T13:02:25.087Z,74.65
2018-01-11T13:04:52.495Z,74.87
2018-01-11T13:07:19.888Z,75.36
2018-01-11T13:09:47.302Z,76.83
2018-01-11T13:12:14.715Z,78.52
2018-01-11T13:14:42.123Z,78.82
2018-01-11T13:17:09.514Z,79.02
2018-01-11T13:19:36.910Z,78.95
2018-01-11T13:22:04.334Z,79.90
2018-01-11T13:24:31.731Z,79.28
2018-01-11T13:26:59.126Z,79.86
2018-01-11T13:29:26.524Z,80.15
2018-01-11T13:31:53.943Z,80.26
2018-01-11T13:34:21.384Z,80.18
2018-01-11T13:36:48.792Z,80.56
2018-01-11T13:39:16.218Z,79.33
2018-01-11T13:41:43.590Z,79.69
2018-01-11T13:44:10.995Z,79.29
2018-01-11T13:46:38.388Z,79.12
2018-01-11T13:49:05.794Z,78.60
2018-01-11T13:51:33.208Z,78.10
2018-01-11T13:54:00.599Z,77.37
2018-01-11T13:56:27.999Z,76.84
2018-01-11T13:58:55.399Z,76.89
2018-01-11T14:01:22.815Z,76.19
2018-01-11T14:03:50.211Z,75.81
2018-01-11T14:06:17.682Z,75.61
2018-01-11T14:08:45.075Z,75.25
2018-01-11T14:11:12.491Z,74.84
2018-01-11T14:13:39.882Z,74.51
2018-01-11T14:16:07.288Z,74.10
2018-01-11T14:18:34.711Z,73.97
2018-01-11T14:21:02.128Z,73.83
2018-01-11T14:23:29.503Z,74.03
2018-01-11T14:25:56.901Z,74.49
2018-01-11T14:28:24.294Z,74.86
2018-01-11T14:30:51.699Z,75.66
2018-01-11T14:33:19.190Z,77.47
2018-01-11T14:35:46.650Z,79.48
2018-01-11T14:38:14.040Z,81.09
2018-01-11T14:40:41.430Z,80.82
2018-01-11T14:43:08.831Z,80.50
2018-01-11T14:45:36.251Z,81.92
2018-01-11T14:48:03.636Z,82.80
2018-01-11T14:50:31.151Z,83.55
2018-01-11T14:52:58.491Z,83.90
2018-01-11T14:55:25.896Z,84.66
2018-01-11T14:57:53.295Z,85.25
2018-01-11T15:00:20.698Z,85.27
2018-01-11T15:02:48.099Z,84.00
2018-01-11T15:05:15.543Z,82.64
2018-01-11T15:07:42.939Z,81.53
2018-01-11T15:10:10.403Z,81.02
2018-01-11T15:12:37.751Z,80.16
2018-01-11T15:15:05.155Z,79.24
2018-01-11T15:17:32.556Z,78.59
2018-01-11T15:20:00.054Z,77.92
2018-01-11T15:22:27.503Z,77.63
2018-01-11T15:24:54.898Z,77.96
2018-01-11T15:27:22.299Z,78.07
2018-01-11T15:29:49.711Z,77.88
2018-01-11T15:32:17.102Z,78.91
2018-01-11T15:34:44.539Z,78.65
2018-01-11T15:37:11.947Z,78.72
2018-01-11T15:39:39.343Z,80.26
2018-01-11T15:42:06.846Z,82.36
2018-01-11T15:44:34.290Z,83.38
2018-01-11T15:47:01.693Z,83.84
2018-01-11T15:49:29.084Z,83.63
2018-01-11T15:51:56.514Z,83.96
2018-01-11T15:54:23.891Z,84.35
2018-01-11T15:56:51.309Z,84.60
2018-01-11T15:59:18.693Z,84.60
2018-01-11T16:01:46.132Z,85.12
2018-01-11T16:04:13.498Z,85.52
2018-01-11T16:06:40.898Z,85.21
2018-01-11T16:09:08.295Z,85.31
2018-01-11T16:11:35.691Z,85.58
2018-01-11T16:14:03.085Z,86.30
2018-01-11T16:16:30.483Z,85.83
2018-01-11T16:18:57.882Z,86.00
2018-01-11T16:21:25.430Z,85.89
2018-01-11T16:23:52.931Z,86.44
2018-01-11T16:26:20.275Z,86.25
2018-01-11T16:28:47.666Z,86.59
2018-01-11T16:31:15.070Z,86.73
2018-01-11T16:33:42.466Z,86.26
2018-01-11T16:36:09.881Z,86.15
2018-01-11T16:38:37.287Z,84.98
2018-01-11T16:41:04.671Z,83.92
2018-01-11T16:43:32.100Z,83.28
2018-01-11T16:45:59.506Z,82.60
2018-01-11T16:48:26.906Z,81.82
2018-01-11T16:50:54.299Z,81.26
2018-01-11T16:53:21.693Z,80.78
2018-01-11T16:55:49.099Z,80.40
2018-01-11T16:58:16.501Z,79.70
2018-01-11T17:00:43.978Z,79.39
2018-01-11T17:03:11.392Z,78.93
2018-01-11T17:05:38.832Z,78.71
2018-01-11T17:08:06.231Z,79.14
2018-01-11T17:10:33.674Z,78.93
2018-01-11T17:13:01.082Z,79.28
2018-01-11T17:15:28.495Z,79.08
2018-01-11T17:17:55.891Z,79.79
2018-01-11T17:20:23.294Z,80.90
2018-01-11T17:22:50.691Z,80.35
2018-01-11T17:25:18.099Z,80.17
2018-01-11T17:27:45.497Z,79.88
2018-01-11T17:30:12.889Z,79.60
2018-01-11T17:32:40.297Z,79.27
2018-01-11T17:35:07.674Z,78.79
2018-01-11T17:37:35.076Z,78.59
2018-01-11T17:40:02.467Z,78.58
2018-01-11T17:42:29.868Z,78.37
2018-01-11T17:44:57.265Z,78.45
2018-01-11T17:47:24.662Z,78.98
2018-01-11T17:49:52.146Z,79.61
2018-01-11T17:52:19.556Z,79.58
2018-01-11T17:54:46.958Z,79.73
2018-01-11T17:57:14.354Z,80.24
2018-01-11T17:59:41.744Z,79.75
2018-01-11T18:02:09.139Z,79.37
2018-01-11T18:04:36.546Z,79.19
2018-01-11T18:07:03.939Z,78.85
2018-01-11T18:09:31.346Z,79.14
2018-01-11T18:11:58.747Z,78.59
2018-01-11T18:14:26.162Z,78.43
2018-01-11T18:16:53.579Z,78.08
2018-01-11T18:19:20.979Z,77.75
2018-01-11T18:21:48.370Z,77.56
2018-01-11T18:24:15.768Z,77.43
2018-01-11T18:26:43.206Z,77.65
2018-01-11T18:29:11.430Z,77.46
2018-01-11T18:31:38.835Z,77.17
2018-01-11T18:34:06.240Z,76.88
2018-01-11T18:36:33.635Z,76.74
2018-01-11T18:39:01.087Z,76.59
2018-01-11T18:41:28.650Z,76.46
2018-01-11T18:43:56.232Z,76.24
2018-01-11T18:46:24.105Z,76.14
2018-01-11T18:48:51.675Z,76.04
2018-01-11T18:51:19.149Z,75.99
2018-01-11T18:53:46.695Z,75.82
2018-01-11T18:56:14.149Z,75.93
2018-01-11T18:58:41.675Z,75.92
2018-01-11T19:01:09.076Z,76.23
2018-01-11T19:03:36.475Z,76.12
2018-01-11T19:06:03.875Z,76.34
2018-01-11T19:08:31.266Z,76.33
2018-01-11T19:10:58.667Z,76.50
2018-01-11T19:13:26.072Z,76.53
2018-01-11T19:15:53.467Z,76.55
2018-01-11T19:18:20.891Z,76.66
2018-01-11T19:20:48.292Z,76.73
2018-01-11T19:23:15.682Z,77.00
2018-01-11T19:25:43.078Z,77.18
2018-01-11T19:28:10.475Z,77.09
2018-01-11T19:30:38.470Z,76.98
2018-01-11T19:33:05.857Z,77.23
2018-01-11T19:35:33.259Z,77.30
2018-01-11T19:38:00.699Z,76.94
2018-01-11T19:40:28.103Z,76.70
2018-01-11T19:42:55.500Z,76.50
2018-01-11T19:45:22.906Z,76.29
2018-01-11T19:47:50.295Z,76.20
2018-01-11T19:50:17.762Z,76.21
2018-01-11T19:52:45.162Z,76.13
2018-01-11T19:55:12.556Z,76.04
2018-01-11T19:57:39.955Z,75.94
2018-01-11T20:00:07.355Z,75.89
2018-01-11T20:02:34.840Z,75.87
2018-01-11T20:05:02.260Z,75.89
2018-01-11T20:07:29.658Z,76.02
2018-01-11T20:09:57.055Z,76.12
2018-01-11T20:12:24.571Z,75.92
2018-01-11T20:14:51.975Z,75.75
2018-01-11T20:17:19.391Z,75.96
2018-01-11T20:19:46.802Z,76.27
2018-01-11T20:22:14.215Z,76.05
2018-01-11T20:24:41.607Z,76.29
2018-01-11T20:27:09.014Z,76.26
2018-01-11T20:29:36.452Z,76.30
2018-01-11T20:32:03.854Z,76.12
2018-01-11T20:34:31.246Z,75.98
2018-01-11T20:36:58.659Z,75.89
2018-01-11T20:39:26.042Z,75.83
2018-01-11T20:41:53.470Z,75.96
2018-01-11T20:44:20.858Z,75.91
2018-01-11T20:46:48.258Z,75.90
2018-01-11T20:49:15.782Z,75.87
2018-01-11T20:51:43.202Z,75.93
2018-01-11T20:54:10.578Z,75.79
2018-01-11T20:56:37.970Z,76.66
2018-01-11T20:59:05.366Z,76.80
2018-01-11T21:01:32.845Z,77.46
2018-01-11T21:04:00.290Z,77.34
2018-01-11T21:06:27.931Z,77.24
2018-01-11T21:08:55.418Z,77.30
2018-01-11T21:11:22.835Z,77.05
2018-01-11T21:13:50.247Z,77.12
2018-01-11T21:16:17.650Z,77.03
2018-01-11T21:18:45.046Z,77.20
2018-01-11T21:21:12.442Z,77.10
2018-01-11T21:23:39.839Z,77.20
2018-01-11T21:26:07.243Z,77.44
2018-01-11T21:28:34.663Z,77.07
2018-01-11T21:31:02.111Z,78.00
2018-01-11T21:33:29.543Z,77.67
2018-01-11T21:35:56.935Z,77.60
2018-01-11T21:38:24.348Z,77.89
2018-01-11T21:40:51.743Z,78.59
2018-01-11T21:43:19.231Z,79.12
2018-01-11T21:45:46.622Z,78.92
2018-01-11T21:48:14.031Z,78.78
2018-01-11T21:50:41.519Z,79.58
2018-01-11T21:53:08.914Z,79.64
2018-01-11T21:55:36.315Z,79.37
2018-01-11T21:58:03.723Z,79.21
2018-01-11T22:00:31.152Z,79.39
2018-01-11T22:02:58.562Z,79.59
2018-01-11T22:05:25.952Z,79.60
2018-01-11T22:07:53.357Z,79.38
2018-01-11T22:10:20.746Z,79.74
2018-01-11T22:12:48.143Z,80.22
2018-01-11T22:15:15.543Z,79.71
2018-01-11T22:17:42.935Z,79.69
2018-01-11T22:20:10.371Z,80.05
2018-01-11T22:22:37.985Z,80.11
2018-01-11T22:25:05.528Z,80.69
2018-01-11T22:27:32.923Z,80.53
2018-01-11T22:30:00.415Z,80.63
2018-01-11T22:32:27.802Z,80.64
2018-01-11T22:34:55.222Z,80.74
2018-01-11T22:37:22.615Z,80.76
2018-01-11T22:39:50.023Z,81.43
2018-01-11T22:42:17.423Z,81.79
2018-01-11T22:44:44.863Z,82.08
2018-01-11T22:47:12.261Z,82.31
2018-01-11T22:49:39.675Z,81.87
2018-01-11T22:52:07.075Z,82.08
2018-01-11T22:54:34.538Z,82.16
2018-01-11T22:57:01.943Z,83.10
2018-01-11T22:59:29.335Z,84.14
2018-01-11T23:01:56.742Z,83.54
2018-01-11T23:04:24.142Z,83.05
2018-01-11T23:06:51.556Z,82.42
2018-01-11T23:09:18.955Z,81.98
2018-01-11T23:11:46.367Z,81.72
2018-01-11T23:14:13.763Z,81.03
2018-01-11T23:16:41.188Z,80.48
2018-01-11T23:19:08.575Z,80.08
2018-01-11T23:21:35.978Z,79.74
2018-01-11T23:24:03.370Z,79.74
2018-01-11T23:26:30.770Z,79.95
2018-01-11T23:28:58.158Z,80.03
2018-01-11T23:31:25.781Z,80.09
2018-01-11T23:33:53.162Z,80.33
2018-01-11T23:36:20.560Z,79.96
2018-01-11T23:38:47.959Z,79.57
2018-01-11T23:41:15.358Z,79.30
2018-01-11T23:43:42.756Z,79.11
2018-01-11T23:46:10.199Z,78.84
2018-01-11T23:48:37.590Z,79.39
2018-01-11T23:51:04.983Z,78.84
2018-01-11T23:53:32.471Z,78.60
2018-01-11T23:55:59.871Z,78.30
2018-01-11T23:58:27.280Z,77.97
